createdAt,value
2017-06-03T00:00:04.804Z,70.10
2017-06-03T00:02:33.733Z,70.10
2017-06-03T00:05:02.659Z,70.20
2017-06-03T00:07:31.629Z,70.30
2017-06-03T00:10:00.640Z,70.50
2017-06-03T00:12:29.724Z,70.30
2017-06-03T00:14:58.648Z,70.20
2017-06-03T00:17:27.569Z,70.60
2017-06-03T00:19:56.560Z,70.80
2017-06-03T00:22:25.592Z,71.00
2017-06-03T00:24:54.587Z,72.10
2017-06-03T00:27:23.592Z,73.70
2017-06-03T00:29:52.556Z,72.80
2017-06-03T00:32:21.581Z,72.10
2017-06-03T00:34:50.553Z,71.50
2017-06-03T00:37:19.557Z,71.90
2017-06-03T00:39:48.485Z,72.10
2017-06-03T00:42:17.451Z,72.40
2017-06-03T00:44:46.375Z,72.10
2017-06-03T00:47:15.360Z,71.40
2017-06-03T00:49:44.398Z,71.40
2017-06-03T00:52:13.320Z,71.00
2017-06-03T00:54:42.243Z,70.80
2017-06-03T00:57:11.220Z,70.50
2017-06-03T00:59:40.200Z,70.40
2017-06-03T01:02:09.212Z,70.60
2017-06-03T01:04:38.136Z,71.10
2017-06-03T01:07:07.112Z,71.80
2017-06-03T01:09:36.049Z,71.90
2017-06-03T01:12:05.025Z,71.50
2017-06-03T01:14:34.076Z,71.60
2017-06-03T01:17:03.000Z,71.60
2017-06-03T01:19:31.967Z,71.60
2017-06-03T01:22:00.936Z,71.70
2017-06-03T01:24:29.899Z,71.70
2017-06-03T01:26:58.820Z,71.50
2017-06-03T01:29:27.884Z,71.70
2017-06-03T01:31:56.869Z,72.10
2017-06-03T01:34:25.800Z,72.30
2017-06-03T01:36:54.734Z,72.60
2017-06-03T01:39:23.701Z,72.30
2017-06-03T01:41:52.667Z,72.80
2017-06-03T01:44:21.649Z,72.90
2017-06-03T01:46:50.575Z,73.10
2017-06-03T01:49:19.496Z,73.10
2017-06-03T01:51:48.504Z,73.40
2017-06-03T01:54:17.459Z,73.70
2017-06-03T01:56:46.427Z,73.70
2017-06-03T01:59:15.360Z,74.60
2017-06-03T02:01:44.287Z,74.70
2017-06-03T02:04:13.277Z,74.20
2017-06-03T02:06:42.267Z,73.90
2017-06-03T02:09:11.203Z,74.00
2017-06-03T02:11:40.188Z,74.30
2017-06-03T02:14:09.122Z,74.60
2017-06-03T02:16:38.148Z,74.40
2017-06-03T02:19:07.112Z,74.40
2017-06-03T02:21:36.122Z,73.90
2017-06-03T02:24:05.203Z,74.60
2017-06-03T02:26:34.156Z,74.50
2017-06-03T02:29:03.105Z,74.90
2017-06-03T02:31:32.092Z,74.90
2017-06-03T02:34:01.077Z,74.90
2017-06-03T02:36:30.006Z,74.50
2017-06-03T02:38:58.933Z,74.40
2017-06-03T02:41:27.908Z,74.50
2017-06-03T02:43:56.837Z,74.80
2017-06-03T02:46:25.840Z,74.40
2017-06-03T02:48:54.819Z,74.30
2017-06-03T02:51:23.832Z,74.40
2017-06-03T02:53:52.761Z,74.50
2017-06-03T02:56:21.816Z,76.00
2017-06-03T02:58:50.760Z,75.20
2017-06-03T03:01:19.687Z,74.90
2017-06-03T03:03:48.655Z,74.90
2017-06-03T03:06:17.584Z,74.80
2017-06-03T03:08:46.511Z,75.00
2017-06-03T03:11:15.569Z,75.00
2017-06-03T03:13:44.528Z,75.00
2017-06-03T03:16:13.452Z,74.60
2017-06-03T03:18:42.422Z,74.60
2017-06-03T03:21:11.420Z,74.60
2017-06-03T03:23:40.343Z,75.00
2017-06-03T03:26:09.278Z,74.80
2017-06-03T03:28:38.245Z,74.20
2017-06-03T03:31:07.181Z,74.20
2017-06-03T03:33:36.167Z,73.80
2017-06-03T03:36:05.093Z,74.20
2017-06-03T03:38:34.064Z,73.90
2017-06-03T03:41:03.060Z,73.40
2017-06-03T03:43:32.034Z,72.80
2017-06-03T03:46:01.003Z,71.50
2017-06-03T03:48:29.927Z,70.10
2017-06-03T03:50:58.853Z,69.30
2017-06-03T03:53:27.825Z,68.10
2017-06-03T03:55:56.756Z,67.00
2017-06-03T03:58:25.708Z,65.60
2017-06-03T04:00:54.689Z,63.30
2017-06-03T04:03:23.608Z,61.50
2017-06-03T04:05:52.532Z,61.00
2017-06-03T04:08:21.572Z,59.90
2017-06-03T04:10:50.572Z,59.30
2017-06-03T04:13:19.564Z,60.00
2017-06-03T04:15:48.556Z,60.50
2017-06-03T04:18:17.547Z,61.10
2017-06-03T04:20:46.467Z,61.30
2017-06-03T04:23:15.432Z,61.30
2017-06-03T04:25:44.391Z,61.40
2017-06-03T04:28:13.364Z,62.70
2017-06-03T04:30:42.304Z,63.00
2017-06-03T04:33:11.228Z,63.30
2017-06-03T04:35:40.217Z,64.00
2017-06-03T04:38:09.140Z,64.60
2017-06-03T04:40:38.085Z,65.20
2017-06-03T04:43:07.115Z,65.90
2017-06-03T04:45:36.042Z,65.80
2017-06-03T04:48:05.010Z,67.20
2017-06-03T04:50:33.988Z,67.30
2017-06-03T04:53:02.956Z,66.90
2017-06-03T04:55:31.984Z,67.00
2017-06-03T04:58:00.907Z,66.00
2017-06-03T05:00:29.899Z,66.10
2017-06-03T05:02:58.856Z,66.50
2017-06-03T05:05:27.848Z,64.60
2017-06-03T05:07:56.844Z,64.20
2017-06-03T05:10:25.836Z,63.90
2017-06-03T05:12:54.828Z,64.40
2017-06-03T05:15:23.816Z,63.80
2017-06-03T05:17:52.745Z,63.20
2017-06-03T05:20:21.668Z,63.60
2017-06-03T05:22:50.636Z,63.90
2017-06-03T05:25:19.564Z,63.70
2017-06-03T05:27:48.539Z,63.20
2017-06-03T05:30:17.472Z,63.40
2017-06-03T05:32:46.396Z,62.30
2017-06-03T05:35:15.369Z,61.80
2017-06-03T05:37:44.287Z,63.00
2017-06-03T05:40:13.216Z,62.10
2017-06-03T05:42:42.231Z,61.30
2017-06-03T05:45:11.224Z,62.10
2017-06-03T05:47:40.301Z,62.00
2017-06-03T05:50:09.224Z,60.20
2017-06-03T05:52:38.144Z,61.00
2017-06-03T05:55:07.118Z,61.80
2017-06-03T05:57:36.060Z,61.30
2017-06-03T06:00:04.976Z,60.00
2017-06-03T06:02:33.948Z,60.50
2017-06-03T06:05:02.872Z,59.40
2017-06-03T06:07:31.792Z,60.40
2017-06-03T06:10:00.748Z,59.00
2017-06-03T06:12:29.672Z,58.50
2017-06-03T06:14:58.696Z,57.80
2017-06-03T06:17:27.630Z,57.90
2017-06-03T06:19:56.613Z,58.20
2017-06-03T06:22:25.535Z,57.70
2017-06-03T06:24:54.472Z,58.60
2017-06-03T06:27:23.448Z,58.40
2017-06-03T06:29:52.386Z,57.80
2017-06-03T06:32:21.348Z,57.30
2017-06-03T06:34:50.348Z,57.40
2017-06-03T06:37:19.279Z,57.70
2017-06-03T06:39:48.244Z,56.50
2017-06-03T06:42:17.319Z,56.70
2017-06-03T06:44:46.251Z,55.40
2017-06-03T06:47:15.175Z,55.60
2017-06-03T06:49:44.140Z,56.10
2017-06-03T06:52:13.087Z,54.50
2017-06-03T06:54:42.211Z,54.70
2017-06-03T06:57:11.184Z,54.80
2017-06-03T06:59:40.149Z,54.80
2017-06-03T07:02:09.111Z,53.70
2017-06-03T07:04:38.132Z,53.40
2017-06-03T07:07:07.129Z,53.50
2017-06-03T07:09:36.065Z,52.70
2017-06-03T07:12:05.008Z,53.60
2017-06-03T07:14:33.971Z,52.40
2017-06-03T07:17:02.953Z,54.00
2017-06-03T07:19:31.953Z,52.80
2017-06-03T07:22:00.924Z,52.30
2017-06-03T07:24:29.850Z,51.80
